Time;durP1;ratioP1;P1;durP2;ratioP2;P2;SDS_P1;SDS_P2;PMS_P1;PMS_P2;Temp;Humidity;BMP_temperature;BMP_pressure;BME280_temperature;BME280_humidity;BME280_pressure;Samples;Min_cycle;Max_cycle;Signal;HPM_P1;HPM_P2
2024/04/01 00:02:10;;;;;;;1.70;0.40;;;10.10;99.90;;;;;;4976179;28;20037;-52
2024/04/01 00:04:35;;;;;;;1.85;0.30;;;10.10;99.90;;;;;;4975438;28;20043;-53
2024/04/01 00:07:01;;;;;;;2.58;0.63;;;10.10;99.90;;;;;;4976431;28;20531;-53
2024/04/01 00:09:26;;;;;;;0.95;0.40;;;10.10;99.90;;;;;;4976138;28;20501;-54
2024/04/01 00:11:52;;;;;;;1.23;0.52;;;10.10;99.90;;;;;;4976113;28;20476;-52
2024/04/01 00:14:17;;;;;;;1.17;0.40;;;10.00;99.90;;;;;;4976088;28;20475;-55
2024/04/01 00:16:43;;;;;;;2.72;0.50;;;10.00;99.90;;;;;;4975770;28;20053;-55
2024/04/01 00:19:08;;;;;;;0.75;0.45;;;10.10;99.90;;;;;;4975732;28;20038;-53
2024/04/01 00:21:34;;;;;;;2.45;0.57;;;10.10;99.90;;;;;;4975676;28;20027;-55
2024/04/01 00:24:00;;;;;;;3.17;0.70;;;10.00;99.90;;;;;;4975949;28;20027;-52
2024/04/01 00:26:25;;;;;;;1.65;0.70;;;10.00;99.90;;;;;;4975902;28;20023;-53
2024/04/01 00:28:51;;;;;;;3.53;0.38;;;10.00;99.90;;;;;;4963259;28;20034;-56
2024/04/01 00:31:16;;;;;;;1.08;0.45;;;10.10;99.90;;;;;;4993225;28;20041;-53
2024/04/01 00:33:42;;;;;;;0.90;0.57;;;10.00;99.90;;;;;;4976259;28;20410;-53
2024/04/01 00:36:07;;;;;;;1.05;0.50;;;10.00;99.90;;;;;;4976256;28;20029;-54
2024/04/01 00:38:33;;;;;;;4.82;0.63;;;10.00;99.90;;;;;;4992684;28;20053;-55
2024/04/01 00:40:58;;;;;;;1.45;0.35;;;9.90;99.90;;;;;;4992591;28;20061;-54
2024/04/01 00:43:25;;;;;;;0.60;0.50;;;9.90;99.90;;;;;;4992449;28;20045;-52
2024/04/01 00:45:52;;;;;;;1.40;0.50;;;9.90;99.90;;;;;;4976141;28;20054;-51
2024/04/01 00:48:17;;;;;;;0.98;0.40;;;9.80;99.90;;;;;;4992271;28;20030;-51
2024/04/01 00:50:46;;;;;;;1.90;0.28;;;9.90;99.90;;;;;;4992188;28;20553;-55
2024/04/01 00:53:12;;;;;;;0.30;0.28;;;9.80;99.90;;;;;;4992176;28;20441;-51
2024/04/01 00:55:43;;;;;;;1.55;0.47;;;9.80;99.90;;;;;;4991918;28;20074;-52
2024/04/01 00:58:09;;;;;;;0.40;0.30;;;9.80;99.90;;;;;;4991904;28;20026;-52
2024/04/01 01:00:35;;;;;;;0.90;0.32;;;9.80;99.90;;;;;;4982786;28;20050;-56
2024/04/01 01:03:02;;;;;;;0.93;0.50;;;9.80;99.90;;;;;;4974818;28;20535;-55
2024/04/01 01:05:32;;;;;;;1.67;1.05;;;9.80;99.90;;;;;;4974844;28;20023;-53
2024/04/01 01:07:58;;;;;;;1.38;0.40;;;9.80;99.90;;;;;;4974664;28;20026;-55
2024/04/01 01:10:24;;;;;;;3.08;0.50;;;9.80;99.90;;;;;;4974869;28;20030;-52
2024/04/01 01:12:50;;;;;;;2.05;0.50;;;9.90;99.90;;;;;;4974973;28;20401;-52
2024/04/01 01:15:16;;;;;;;1.48;0.35;;;9.90;99.90;;;;;;4974664;28;20030;-53
2024/04/01 01:17:42;;;;;;;2.35;1.08;;;9.90;99.90;;;;;;4974462;28;20038;-51
2024/04/01 01:20:11;;;;;;;0.68;0.30;;;9.90;99.90;;;;;;4974413;28;20034;-53
2024/04/01 01:22:38;;;;;;;1.40;0.30;;;9.90;99.90;;;;;;4957008;28;20479;-55
2024/04/01 01:25:07;;;;;;;1.33;0.60;;;9.90;99.90;;;;;;4974475;28;20019;-51
2024/04/01 01:27:42;;;;;;;0.17;0.17;;;9.90;99.90;;;;;;4974239;28;20023;-52
2024/04/01 01:30:17;;;;;;;0.90;0.32;;;9.90;99.90;;;;;;4974324;28;20368;-54
2024/04/01 01:32:51;;;;;;;5.72;0.40;;;9.90;99.90;;;;;;4974520;28;20070;-51
2024/04/01 01:35:25;;;;;;;0.52;0.35;;;10.00;99.90;;;;;;4974177;28;20487;-54
2024/04/01 01:37:51;;;;;;;0.90;0.40;;;10.00;99.90;;;;;;4974232;28;20113;-53
2024/04/01 01:40:17;;;;;;;3.22;0.40;;;10.00;99.90;;;;;;4974328;28;20039;-54
2024/04/01 01:42:43;;;;;;;1.33;0.40;;;10.00;99.90;;;;;;4973869;28;20030;-55
2024/04/01 01:45:09;;;;;;;1.45;0.47;;;10.00;99.90;;;;;;4973825;28;20037;-51
2024/04/01 01:47:35;;;;;;;0.55;0.25;;;9.90;99.90;;;;;;4974404;28;20022;-53
2024/04/01 01:50:02;;;;;;;1.55;0.45;;;9.90;99.90;;;;;;4973978;28;20023;-55
2024/04/01 01:52:28;;;;;;;2.22;0.47;;;9.90;99.90;;;;;;4973979;28;20483;-52
2024/04/01 01:54:54;;;;;;;2.55;0.40;;;9.90;99.90;;;;;;4972861;28;20085;-51
2024/04/01 01:57:19;;;;;;;0.73;0.30;;;10.00;99.90;;;;;;4972307;28;20322;-53
2024/04/01 01:59:45;;;;;;;2.47;1.27;;;10.00;99.90;;;;;;4971352;28;20527;-50
2024/04/01 02:02:12;;;;;;;0.57;0.40;;;10.00;99.90;;;;;;4972743;28;20034;-50
2024/04/01 02:04:38;;;;;;;1.85;0.20;;;10.00;99.90;;;;;;4955066;28;20105;-52
2024/04/01 02:07:05;;;;;;;0.70;0.50;;;10.10;99.90;;;;;;4972783;28;20535;-51
2024/04/01 02:09:31;;;;;;;1.90;0.73;;;10.10;99.90;;;;;;4973083;28;20117;-51
2024/04/01 02:11:57;;;;;;;1.13;0.30;;;10.10;99.90;;;;;;4972044;28;20497;-50
2024/04/01 02:14:23;;;;;;;1.33;0.30;;;10.10;99.90;;;;;;4971925;28;20089;-50
2024/04/01 02:16:48;;;;;;;1.25;0.30;;;10.00;99.90;;;;;;4952213;28;20794;-53
2024/04/01 02:19:14;;;;;;;1.02;0.45;;;10.00;99.90;;;;;;4972537;28;20037;-52
2024/04/01 02:21:40;;;;;;;1.20;0.40;;;10.00;99.90;;;;;;4972542;28;20077;-52
2024/04/01 02:24:06;;;;;;;1.58;0.50;;;10.00;99.90;;;;;;4972435;28;20066;-49
2024/04/01 02:26:34;;;;;;;3.17;0.50;;;10.10;99.90;;;;;;4971334;28;20126;-51
2024/04/01 02:28:59;;;;;;;0.65;0.43;;;10.10;99.90;;;;;;4945169;28;20031;-50
2024/04/01 02:31:25;;;;;;;1.60;0.47;;;10.10;99.90;;;;;;4971141;28;20444;-51
2024/04/01 02:33:51;;;;;;;0.82;0.30;;;10.10;99.90;;;;;;4970102;28;20070;-52
2024/04/01 02:36:16;;;;;;;2.20;0.22;;;10.10;99.90;;;;;;4969466;28;20078;-49
2024/04/01 02:38:48;;;;;;;2.78;0.35;;;10.10;99.90;;;;;;4969663;28;20094;-52
2024/04/01 02:41:14;;;;;;;1.10;0.38;;;10.10;99.90;;;;;;4969047;28;20527;-52
2024/04/01 02:43:40;;;;;;;0.57;0.30;;;10.10;99.90;;;;;;4963584;28;20086;-54
2024/04/01 02:46:05;;;;;;;1.55;0.35;;;10.00;99.90;;;;;;4967597;28;20722;-52
2024/04/01 02:48:31;;;;;;;1.60;0.47;;;10.00;99.90;;;;;;4969850;28;20019;-55
2024/04/01 02:50:56;;;;;;;0.80;0.50;;;10.10;99.90;;;;;;4966428;28;20043;-54
2024/04/01 02:53:22;;;;;;;0.65;0.38;;;10.10;99.90;;;;;;4970189;28;20038;-50
2024/04/01 02:55:47;;;;;;;0.50;0.30;;;10.10;99.90;;;;;;4974485;28;20078;-51
2024/04/01 02:58:13;;;;;;;4.03;0.52;;;10.20;99.90;;;;;;4970507;28;20503;-51
2024/04/01 03:00:39;;;;;;;1.00;0.32;;;10.20;99.90;;;;;;4969985;28;20038;-54
2024/04/01 03:03:04;;;;;;;4.00;0.30;;;10.30;99.90;;;;;;4972126;28;20034;-50
2024/04/01 03:05:30;;;;;;;0.93;0.40;;;10.30;99.90;;;;;;4972445;28;20030;-51
2024/04/01 03:07:55;;;;;;;1.95;0.40;;;10.30;99.90;;;;;;4971883;28;20031;-50
2024/04/01 03:10:21;;;;;;;0.30;0.30;;;10.40;99.90;;;;;;4971727;28;20026;-52
2024/04/01 03:12:47;;;;;;;0.22;0.22;;;10.40;99.90;;;;;;4972289;28;20058;-50
2024/04/01 03:15:19;;;;;;;1.77;0.50;;;10.40;99.90;;;;;;4970717;28;20506;-53
2024/04/01 03:17:44;;;;;;;0.57;0.40;;;10.40;99.90;;;;;;4968758;28;20027;-53
2024/04/01 03:20:11;;;;;;;2.20;0.60;;;10.40;99.90;;;;;;4971867;28;20106;-54
2024/04/01 03:22:38;;;;;;;3.83;0.50;;;10.50;99.90;;;;;;4971779;28;20037;-51
2024/04/01 03:25:04;;;;;;;1.45;0.47;;;10.40;99.90;;;;;;4971610;28;20149;-50
2024/04/01 03:27:30;;;;;;;0.88;0.40;;;10.40;99.90;;;;;;4971262;28;20134;-50
2024/04/01 03:29:56;;;;;;;1.88;0.40;;;10.40;99.90;;;;;;4945800;28;20035;-53
2024/04/01 03:32:21;;;;;;;0.98;0.40;;;10.30;99.90;;;;;;4968755;28;20066;-50
2024/04/01 03:34:48;;;;;;;1.17;0.40;;;10.20;99.90;;;;;;4970353;28;20117;-52
2024/04/01 03:37:14;;;;;;;0.80;0.50;;;10.20;99.90;;;;;;4969501;28;20031;-54
2024/04/01 03:39:42;;;;;;;4.70;0.50;;;10.30;99.90;;;;;;4971839;28;20038;-51
2024/04/01 03:42:08;;;;;;;0.80;0.52;;;10.30;99.90;;;;;;4972914;28;20039;-49
2024/04/01 03:44:33;;;;;;;4.50;0.40;;;10.30;99.90;;;;;;4972241;28;20041;-53
2024/04/01 03:46:59;;;;;;;1.23;0.63;;;10.30;99.90;;;;;;4970700;28;20039;-50
2024/04/01 03:49:25;;;;;;;5.45;0.60;;;10.30;99.90;;;;;;4958792;28;20030;-50
2024/04/01 03:51:50;;;;;;;1.58;1.05;;;10.30;99.90;;;;;;4972949;28;20447;-50
2024/04/01 03:54:16;;;;;;;1.20;0.63;;;10.20;99.90;;;;;;4972673;28;20138;-51
2024/04/01 03:56:42;;;;;;;1.08;0.52;;;10.10;99.90;;;;;;4972129;28;20047;-51
2024/04/01 03:59:08;;;;;;;4.57;0.68;;;10.10;99.90;;;;;;4971258;28;20490;-50
2024/04/01 04:01:34;;;;;;;2.78;0.55;;;10.00;99.90;;;;;;4970858;28;20031;-51
2024/04/01 04:03:59;;;;;;;0.75;0.50;;;10.00;99.90;;;;;;4974816;28;20488;-52
2024/04/01 04:06:26;;;;;;;3.92;0.70;;;9.90;99.90;;;;;;4974675;28;20023;-52
2024/04/01 04:08:51;;;;;;;0.90;0.40;;;9.90;99.90;;;;;;4974106;28;20023;-51
2024/04/01 04:11:17;;;;;;;1.35;0.52;;;9.90;99.90;;;;;;4974904;28;20076;-52
2024/04/01 04:13:44;;;;;;;5.28;0.77;;;9.90;99.90;;;;;;4973945;28;20038;-51
2024/04/01 04:16:09;;;;;;;4.05;0.52;;;9.90;99.90;;;;;;4973270;28;21743;-51
2024/04/01 04:18:35;;;;;;;0.73;0.40;;;9.80;99.90;;;;;;4973497;28;20035;-51
2024/04/01 04:21:01;;;;;;;2.15;1.00;;;9.80;99.90;;;;;;4973664;28;20031;-53
2024/04/01 04:23:28;;;;;;;1.23;0.40;;;9.80;99.90;;;;;;4974352;28;20116;-50
2024/04/01 04:25:56;;;;;;;6.93;0.88;;;9.80;99.90;;;;;;4957026;28;20546;-54
2024/04/01 04:28:21;;;;;;;0.40;0.40;;;9.80;99.90;;;;;;4973485;28;20030;-54
2024/04/01 04:30:47;;;;;;;2.20;1.02;;;9.80;99.90;;;;;;4947389;28;20031;-53
2024/04/01 04:33:12;;;;;;;6.38;0.80;;;9.80;99.90;;;;;;4970167;28;20106;-52
2024/04/01 04:35:38;;;;;;;3.38;0.63;;;9.80;99.90;;;;;;4975172;28;20552;-50
2024/04/01 04:38:04;;;;;;;1.17;0.75;;;9.80;99.90;;;;;;4967305;28;20278;-52
2024/04/01 04:40:29;;;;;;;1.80;1.00;;;9.70;99.90;;;;;;4971204;28;20553;-52
2024/04/01 04:42:55;;;;;;;1.55;0.50;;;9.70;99.90;;;;;;4971864;28;20039;-51
2024/04/01 04:45:24;;;;;;;3.45;0.63;;;9.70;99.90;;;;;;4969205;28;20139;-53
2024/04/01 04:47:50;;;;;;;6.25;1.10;;;9.70;99.90;;;;;;4971416;28;20038;-54
2024/04/01 04:50:16;;;;;;;0.85;0.60;;;9.70;99.90;;;;;;4972712;28;20344;-53
2024/04/01 04:52:42;;;;;;;4.63;0.70;;;9.70;99.90;;;;;;4976037;28;20035;-52
2024/04/01 04:55:07;;;;;;;5.60;1.38;;;9.60;99.90;;;;;;4974334;28;20546;-51
2024/04/01 04:57:33;;;;;;;2.42;1.17;;;9.60;99.90;;;;;;4977648;28;20037;-50
2024/04/01 04:59:59;;;;;;;2.45;1.27;;;9.70;99.90;;;;;;4973793;28;20041;-50
2024/04/01 05:02:25;;;;;;;5.90;1.38;;;9.60;99.90;;;;;;4974595;28;20384;-54
2024/04/01 05:04:50;;;;;;;0.75;0.60;;;9.60;99.90;;;;;;4973401;28;20029;-50
2024/04/01 05:07:16;;;;;;;2.80;0.73;;;9.60;99.90;;;;;;4972818;28;20047;-52
2024/04/01 05:09:42;;;;;;;6.72;0.90;;;9.60;99.90;;;;;;4972710;28;20695;-50
2024/04/01 05:12:07;;;;;;;2.45;0.70;;;9.60;99.90;;;;;;4973631;28;20019;-50
2024/04/01 05:14:33;;;;;;;2.38;0.63;;;9.60;99.90;;;;;;4973563;28;20045;-50
2024/04/01 05:16:59;;;;;;;2.53;0.73;;;9.60;99.90;;;;;;4973462;28;20022;-53
2024/04/01 05:19:25;;;;;;;2.08;0.80;;;9.60;99.90;;;;;;4973884;28;20031;-54
2024/04/01 05:21:50;;;;;;;1.27;0.63;;;9.60;99.90;;;;;;4973338;28;20537;-51
2024/04/01 05:24:16;;;;;;;4.22;0.68;;;9.50;99.90;;;;;;4957808;28;20085;-51
2024/04/01 05:26:42;;;;;;;3.25;0.70;;;9.50;99.90;;;;;;4973107;28;20074;-51
2024/04/01 05:29:08;;;;;;;3.58;0.70;;;9.50;99.90;;;;;;4972889;28;20019;-51
2024/04/01 05:31:34;;;;;;;1.42;0.70;;;9.50;99.90;;;;;;4948108;28;20033;-52
2024/04/01 05:34:01;;;;;;;0.85;0.63;;;9.50;99.90;;;;;;4992322;28;20026;-50
2024/04/01 05:36:28;;;;;;;0.70;0.50;;;9.50;99.90;;;;;;4994508;28;20044;-50
2024/04/01 05:38:54;;;;;;;8.05;0.70;;;9.50;99.90;;;;;;4984201;28;20034;-53
2024/04/01 05:41:21;;;;;;;2.22;0.73;;;9.50;99.90;;;;;;4991438;28;20089;-51
2024/04/01 05:43:47;;;;;;;3.55;0.80;;;9.50;99.90;;;;;;4988655;28;20046;-50
2024/04/01 05:46:13;;;;;;;1.98;0.60;;;9.50;99.90;;;;;;4990375;28;20089;-50
2024/04/01 05:48:38;;;;;;;5.57;1.02;;;9.50;99.90;;;;;;4989897;28;20046;-51
2024/04/01 05:51:04;;;;;;;3.08;0.75;;;9.60;99.90;;;;;;4993314;28;20520;-53
2024/04/01 05:53:30;;;;;;;0.98;0.57;;;9.60;99.90;;;;;;4997905;28;20049;-50
2024/04/01 05:55:55;;;;;;;0.98;0.52;;;9.60;99.90;;;;;;4981256;28;20033;-52
2024/04/01 05:58:21;;;;;;;1.02;0.55;;;9.60;99.90;;;;;;4993135;28;20130;-51
2024/04/01 06:00:47;;;;;;;2.13;0.65;;;9.60;99.90;;;;;;4989461;28;20042;-51
2024/04/01 06:03:13;;;;;;;2.58;0.43;;;9.60;99.90;;;;;;4985364;28;20034;-51
2024/04/01 06:05:38;;;;;;;1.88;0.52;;;9.60;99.90;;;;;;4974664;28;20042;-50
2024/04/01 06:08:05;;;;;;;1.38;0.60;;;9.60;99.90;;;;;;4972397;28;20070;-51
2024/04/01 06:10:30;;;;;;;1.58;0.80;;;9.60;99.90;;;;;;4971961;28;20034;-50
2024/04/01 06:12:56;;;;;;;2.92;0.63;;;9.60;99.90;;;;;;4972558;28;20064;-51
2024/04/01 06:15:22;;;;;;;1.52;0.40;;;9.60;99.90;;;;;;4972274;28;20522;-50
2024/04/01 06:17:48;;;;;;;1.05;0.55;;;9.70;99.90;;;;;;4971379;28;20027;-50
2024/04/01 06:20:14;;;;;;;2.22;0.47;;;9.60;99.90;;;;;;4971199;28;20030;-51
2024/04/01 06:22:39;;;;;;;2.85;0.70;;;9.60;99.90;;;;;;4957667;28;20027;-51
2024/04/01 06:25:06;;;;;;;1.25;0.52;;;9.60;99.90;;;;;;4971538;28;20018;-53
2024/04/01 06:27:32;;;;;;;1.80;0.57;;;9.70;99.90;;;;;;4971861;28;20073;-52
2024/04/01 06:29:58;;;;;;;1.52;0.70;;;9.70;99.90;;;;;;4972849;28;20026;-50
2024/04/01 06:32:23;;;;;;;5.07;0.75;;;9.70;99.90;;;;;;4973116;28;20026;-53
2024/04/01 06:34:51;;;;;;;2.10;0.68;;;9.70;99.90;;;;;;4972963;28;20030;-50
2024/04/01 06:37:18;;;;;;;1.88;0.68;;;9.70;99.90;;;;;;4972035;28;20038;-50
2024/04/01 06:39:43;;;;;;;3.05;0.73;;;9.80;99.90;;;;;;4972284;28;20110;-50
2024/04/01 06:42:09;;;;;;;5.20;1.30;;;9.90;99.90;;;;;;4972844;28;20518;-52
2024/04/01 06:44:36;;;;;;;1.48;0.70;;;10.00;99.90;;;;;;4973190;28;20027;-52
2024/04/01 06:47:02;;;;;;;3.25;0.55;;;10.00;99.90;;;;;;4972426;28;20392;-50
2024/04/01 06:49:27;;;;;;;2.22;0.60;;;10.10;99.90;;;;;;4974263;28;20110;-54
2024/04/01 06:51:53;;;;;;;2.30;1.10;;;10.20;99.90;;;;;;4974727;28;20026;-54
2024/04/01 06:54:18;;;;;;;2.97;1.25;;;10.20;99.90;;;;;;4955677;28;20112;-51
2024/04/01 06:56:44;;;;;;;6.82;2.95;;;10.30;99.90;;;;;;4972627;28;20038;-51
2024/04/01 06:59:10;;;;;;;1.63;0.90;;;10.40;99.90;;;;;;4972943;28;20018;-51
2024/04/01 07:01:36;;;;;;;3.08;1.10;;;10.30;99.90;;;;;;4972176;28;20146;-51
2024/04/01 07:04:02;;;;;;;3.35;0.85;;;10.20;99.90;;;;;;4972874;28;20097;-51
2024/04/01 07:06:28;;;;;;;3.72;0.80;;;10.20;99.90;;;;;;4955086;28;20503;-52
2024/04/01 07:08:54;;;;;;;4.20;1.70;;;10.10;99.90;;;;;;4972364;28;20019;-50
2024/04/01 07:11:19;;;;;;;2.70;1.20;;;10.20;99.90;;;;;;4955029;28;20023;-49
2024/04/01 07:13:45;;;;;;;6.30;2.10;;;10.10;99.90;;;;;;4957682;28;20085;-54
2024/04/01 07:16:10;;;;;;;2.55;1.02;;;10.00;99.90;;;;;;4975202;28;20046;-50
2024/04/01 07:18:38;;;;;;;4.38;1.02;;;10.00;99.90;;;;;;4974873;28;20113;-50
2024/04/01 07:21:04;;;;;;;1.95;0.95;;;10.00;99.90;;;;;;4976029;28;20065;-51
2024/04/01 07:23:29;;;;;;;1.75;1.10;;;10.00;99.90;;;;;;4976488;28;20039;-50
2024/04/01 07:25:55;;;;;;;9.05;2.50;;;9.90;99.90;;;;;;4975927;28;20466;-51
2024/04/01 07:28:21;;;;;;;2.42;1.63;;;9.90;99.90;;;;;;4973840;28;20021;-51
2024/04/01 07:30:46;;;;;;;3.40;1.65;;;9.90;99.90;;;;;;4976030;28;20026;-53
2024/04/01 07:33:12;;;;;;;3.17;1.80;;;10.00;99.90;;;;;;4951160;28;20031;-52
2024/04/01 07:35:37;;;;;;;3.85;2.13;;;10.00;99.90;;;;;;4983385;28;20038;-54
2024/04/01 07:38:03;;;;;;;5.70;2.83;;;10.00;99.90;;;;;;4987269;28;20121;-52
2024/04/01 07:40:28;;;;;;;6.45;3.00;;;10.10;99.90;;;;;;4981172;28;20046;-50
2024/04/01 07:42:54;;;;;;;5.82;3.42;;;10.20;99.90;;;;;;4980761;28;20031;-54
2024/04/01 07:45:20;;;;;;;9.15;4.43;;;10.20;99.90;;;;;;4982358;28;20161;-51
2024/04/01 07:47:45;;;;;;;6.15;3.83;;;10.30;99.90;;;;;;4982848;28;20026;-55
2024/04/01 07:50:11;;;;;;;4.88;2.20;;;10.30;99.90;;;;;;4972338;28;20043;-50
2024/04/01 07:52:36;;;;;;;3.67;2.20;;;10.30;99.90;;;;;;4973484;28;20038;-56
2024/04/01 07:55:02;;;;;;;4.97;2.20;;;10.30;99.90;;;;;;4977533;28;20034;-56
2024/04/01 07:57:31;;;;;;;4.55;2.60;;;10.40;99.90;;;;;;4972576;28;20041;-57
2024/04/01 07:59:57;;;;;;;6.00;1.85;;;10.30;99.90;;;;;;4964208;28;20045;-56
2024/04/01 08:02:23;;;;;;;3.40;1.33;;;10.40;99.90;;;;;;4972557;28;20030;-58
2024/04/01 08:04:49;;;;;;;3.42;1.50;;;10.40;99.90;;;;;;4969595;28;20045;-56
2024/04/01 08:07:15;;;;;;;4.30;2.40;;;10.50;99.90;;;;;;4953569;28;20027;-57
2024/04/01 08:09:41;;;;;;;3.28;1.65;;;10.60;99.90;;;;;;4975474;28;20363;-57
2024/04/01 08:12:07;;;;;;;5.13;1.98;;;10.80;99.90;;;;;;4973942;28;20565;-57
2024/04/01 08:14:33;;;;;;;13.52;5.03;;;10.90;99.90;;;;;;4970443;28;20050;-56
2024/04/01 08:16:59;;;;;;;6.90;3.58;;;10.90;99.90;;;;;;4974417;28;20120;-56
2024/04/01 08:19:26;;;;;;;6.78;3.13;;;10.90;99.90;;;;;;4974379;28;20023;-54
2024/04/01 08:21:52;;;;;;;4.15;1.90;;;10.90;99.90;;;;;;4974782;28;20030;-57
2024/04/01 08:24:17;;;;;;;3.45;1.73;;;10.90;99.90;;;;;;4974029;28;20399;-57
2024/04/01 08:26:44;;;;;;;10.80;4.25;;;10.90;99.90;;;;;;4974061;28;20038;-54
2024/04/01 08:29:09;;;;;;;9.52;2.75;;;11.00;99.90;;;;;;4974060;28;20081;-57
2024/04/01 08:31:35;;;;;;;7.68;3.08;;;10.90;99.90;;;;;;4974969;28;20079;-53
2024/04/01 08:34:01;;;;;;;10.45;3.40;;;10.80;99.90;;;;;;4974872;28;20043;-57
2024/04/01 08:36:26;;;;;;;8.60;3.38;;;10.80;99.90;;;;;;4939701;28;20046;-57
2024/04/01 08:38:52;;;;;;;10.10;4.00;;;10.80;99.90;;;;;;4966626;28;20039;-56
2024/04/01 08:41:32;;;;;;;12.52;4.45;;;10.80;99.90;;;;;;4966629;28;20073;-53
2024/04/01 08:44:13;;;;;;;5.72;2.03;;;10.80;99.90;;;;;;4972727;28;20034;-55
2024/04/01 08:46:43;;;;;;;10.10;3.78;;;10.80;99.90;;;;;;4965152;28;20038;-54
2024/04/01 08:49:13;;;;;;;5.90;2.63;;;10.70;99.90;;;;;;4965931;28;20030;-54
2024/04/01 08:51:40;;;;;;;6.78;2.65;;;10.70;99.90;;;;;;4968683;28;20590;-53
2024/04/01 08:54:13;;;;;;;3.15;2.00;;;10.60;99.90;;;;;;4968393;28;20034;-53
2024/04/01 08:56:40;;;;;;;5.70;2.72;;;10.60;99.90;;;;;;4971758;28;20674;-52
2024/04/01 08:59:09;;;;;;;14.38;5.25;;;10.50;99.90;;;;;;4970308;28;20027;-59
2024/04/01 09:01:36;;;;;;;7.85;3.53;;;10.50;99.90;;;;;;4969391;28;20541;-56
2024/04/01 09:04:03;;;;;;;14.95;4.68;;;10.50;99.90;;;;;;4967350;28;20030;-57
2024/04/01 09:06:29;;;;;;;5.88;2.30;;;10.40;99.90;;;;;;4971050;28;20027;-57
2024/04/01 09:08:55;;;;;;;4.00;1.40;;;10.40;99.90;;;;;;4974223;28;20511;-53
2024/04/01 09:11:22;;;;;;;20.05;4.82;;;10.30;99.90;;;;;;4973557;28;20050;-54
2024/04/01 09:13:49;;;;;;;4.05;1.58;;;10.30;99.90;;;;;;4973352;28;20030;-53
2024/04/01 09:16:22;;;;;;;2.17;1.05;;;10.40;99.90;;;;;;4969969;28;20038;-57
2024/04/01 09:18:49;;;;;;;1.95;1.00;;;10.50;99.90;;;;;;4973347;28;20110;-57
2024/04/01 09:21:18;;;;;;;8.23;3.13;;;10.60;99.90;;;;;;4972203;28;20031;-56
2024/04/01 09:23:44;;;;;;;1.05;0.70;;;10.60;99.90;;;;;;4973677;28;20529;-56
2024/04/01 09:26:10;;;;;;;10.80;3.30;;;10.70;99.90;;;;;;4973343;28;20443;-55
2024/04/01 09:28:35;;;;;;;2.83;0.90;;;10.70;99.90;;;;;;4971231;28;20034;-57
2024/04/01 09:31:01;;;;;;;3.30;1.23;;;10.80;99.90;;;;;;4971002;28;20360;-54
2024/04/01 09:33:27;;;;;;;1.02;0.70;;;10.90;99.90;;;;;;4973445;28;20106;-55
2024/04/01 09:35:53;;;;;;;1.63;1.08;;;10.90;99.90;;;;;;4971718;28;20049;-56
2024/04/01 09:38:19;;;;;;;1.55;0.77;;;10.90;99.90;;;;;;4973074;28;20034;-56
2024/04/01 09:40:56;;;;;;;8.52;2.72;;;10.70;99.90;;;;;;4972854;28;20030;-55
2024/04/01 09:43:26;;;;;;;12.15;5.18;;;10.60;99.90;;;;;;4972625;28;20023;-57
2024/04/01 09:45:52;;;;;;;20.20;7.25;;;10.60;99.90;;;;;;4972689;28;20042;-56
2024/04/01 09:48:22;;;;;;;6.28;2.85;;;10.60;99.90;;;;;;4973352;28;20023;-53
2024/04/01 09:50:49;;;;;;;6.30;2.78;;;10.60;99.90;;;;;;4972704;28;20054;-52
2024/04/01 09:53:15;;;;;;;4.43;1.88;;;10.50;99.90;;;;;;4972294;28;20045;-54
2024/04/01 09:56:01;;;;;;;6.03;3.38;;;10.50;99.90;;;;;;4972728;28;20101;-56
2024/04/01 09:58:48;;;;;;;2.72;1.33;;;10.50;99.90;;;;;;4973155;28;20076;-55
2024/04/01 10:01:42;;;;;;;2.10;1.40;;;10.40;99.90;;;;;;4971309;28;20038;-56
2024/04/01 10:04:26;;;;;;;8.48;4.93;;;10.30;99.90;;;;;;4972914;28;20430;-56
2024/04/01 10:07:14;;;;;;;3.15;1.75;;;10.30;99.90;;;;;;4972153;28;20027;-56
2024/04/01 10:09:58;;;;;;;3.63;1.90;;;10.30;99.90;;;;;;4973157;28;20023;-56
2024/04/01 10:12:55;;;;;;;2.30;1.70;;;10.30;99.90;;;;;;4971761;28;20022;-56
2024/04/01 10:15:45;;;;;;;4.15;2.50;;;10.30;99.90;;;;;;4964231;28;20039;-57
2024/04/01 10:18:26;;;;;;;4.38;2.63;;;10.30;99.90;;;;;;4970956;28;20035;-58
2024/04/01 10:21:29;;;;;;;3.42;2.45;;;10.40;99.90;;;;;;4969829;28;20093;-57
2024/04/01 10:24:16;;;;;;;4.40;2.67;;;10.30;99.90;;;;;;4971608;28;20031;-55
2024/04/01 10:27:02;;;;;;;5.60;3.35;;;10.30;99.90;;;;;;4973027;28;20031;-57
2024/04/01 10:29:53;;;;;;;3.60;2.67;;;10.20;99.90;;;;;;4970645;28;20158;-54
2024/04/01 10:32:34;;;;;;;5.40;2.67;;;10.30;99.90;;;;;;4971770;28;20506;-55
2024/04/01 10:35:02;;;;;;;3.67;2.45;;;10.30;99.90;;;;;;4972694;28;20049;-57
2024/04/01 10:37:31;;;;;;;4.68;2.70;;;10.50;99.90;;;;;;4968972;28;20033;-55
2024/04/01 10:40:16;;;;;;;2.53;2.25;;;10.60;99.90;;;;;;4970344;28;20035;-53
2024/04/01 10:42:48;;;;;;;4.65;2.05;;;10.80;99.90;;;;;;4970798;28;20035;-54
2024/04/01 10:45:32;;;;;;;2.28;2.03;;;11.10;99.90;;;;;;4971940;28;20115;-56
2024/04/01 10:48:06;;;;;;;2.33;1.63;;;11.50;99.90;;;;;;4971513;28;20022;-58
2024/04/01 10:51:19;;;;;;;4.03;2.17;;;11.70;99.90;;;;;;4970686;28;20023;-57
2024/04/01 10:54:05;;;;;;;2.85;2.00;;;12.00;99.90;;;;;;4932070;29;20039;-56
2024/04/01 10:56:42;;;;;;;4.05;2.03;;;12.20;99.90;;;;;;4970246;28;20035;-57
2024/04/01 10:59:46;;;;;;;2.85;1.80;;;12.20;99.90;;;;;;4962282;28;20027;-59
2024/04/01 11:02:48;;;;;;;4.40;2.13;;;12.10;99.90;;;;;;4975535;28;20455;-57
2024/04/01 11:06:07;;;;;;;2.88;1.58;;;11.80;99.90;;;;;;4974834;28;20062;-58
2024/04/01 11:08:57;;;;;;;2.30;1.90;;;11.60;99.90;;;;;;4914638;28;20053;-55
2024/04/01 11:11:50;;;;;;;2.13;1.70;;;11.70;99.90;;;;;;4974146;28;20030;-57
2024/04/01 11:14:18;;;;;;;3.72;1.50;;;11.50;99.90;;;;;;4976264;28;20023;-55
2024/04/01 11:16:54;;;;;;;2.70;1.67;;;11.40;99.90;;;;;;4975145;28;20030;-56
2024/04/01 11:19:57;;;;;;;5.20;2.65;;;11.10;99.90;;;;;;4975646;28;20027;-56
2024/04/01 11:22:59;;;;;;;5.63;3.13;;;10.90;99.90;;;;;;4976612;28;20023;-54
2024/04/01 11:25:48;;;;;;;6.07;2.58;;;10.80;99.90;;;;;;4976639;28;20027;-52
2024/04/01 11:28:33;;;;;;;15.13;7.68;;;10.80;99.90;;;;;;4976424;28;20153;-54
2024/04/01 11:31:16;;;;;;;8.38;3.47;;;10.80;99.90;;;;;;4976401;28;20414;-55
2024/04/01 11:33:55;;;;;;;15.23;5.13;;;10.80;99.90;;;;;;4976377;28;20026;-53
2024/04/01 11:36:30;;;;;;;6.38;3.35;;;10.90;99.90;;;;;;4976513;28;20039;-53
2024/04/01 11:39:09;;;;;;;4.03;2.38;;;10.90;99.90;;;;;;4976187;28;20521;-54
2024/04/01 11:41:38;;;;;;;2.85;2.38;;;10.80;99.90;;;;;;4976129;28;20030;-55
2024/04/01 11:44:05;;;;;;;3.53;2.05;;;10.90;99.90;;;;;;4976198;28;20031;-51
2024/04/01 11:46:32;;;;;;;3.55;2.13;;;10.90;99.90;;;;;;4975957;28;20023;-54
2024/04/01 11:48:57;;;;;;;7.60;2.05;;;11.10;99.90;;;;;;4975930;28;20029;-54
2024/04/01 11:51:33;;;;;;;4.70;2.45;;;11.20;99.90;;;;;;4976097;28;20531;-56
2024/04/01 11:53:59;;;;;;;4.30;2.40;;;11.30;99.90;;;;;;4976160;28;20054;-54
2024/04/01 11:56:41;;;;;;;7.30;2.85;;;11.30;99.90;;;;;;4976041;28;20133;-56
2024/04/01 11:59:08;;;;;;;3.50;2.15;;;11.10;99.90;;;;;;4974940;28;20084;-55
2024/04/01 12:01:35;;;;;;;7.28;2.35;;;11.00;99.90;;;;;;4975829;28;20090;-54
2024/04/01 12:04:02;;;;;;;7.10;3.85;;;10.90;99.90;;;;;;4975816;28;20062;-51
2024/04/01 12:06:33;;;;;;;7.95;2.58;;;10.80;99.90;;;;;;4976022;28;20524;-53
2024/04/01 12:09:00;;;;;;;6.70;3.22;;;10.80;99.90;;;;;;4976118;28;20031;-53
2024/04/01 12:11:27;;;;;;;2.78;2.08;;;10.70;99.90;;;;;;4975936;28;20015;-54
2024/04/01 12:13:55;;;;;;;5.35;2.45;;;10.80;99.90;;;;;;4975867;28;20106;-52
2024/04/01 12:16:22;;;;;;;2.17;1.48;;;10.90;99.90;;;;;;4975467;28;20102;-56
2024/04/01 12:18:50;;;;;;;5.38;2.08;;;10.90;99.90;;;;;;4975372;28;20051;-55
2024/04/01 12:21:20;;;;;;;7.85;3.58;;;11.00;99.90;;;;;;4975582;28;20089;-56
2024/04/01 12:23:49;;;;;;;3.50;1.48;;;11.10;99.90;;;;;;4975605;28;20460;-54
2024/04/01 12:26:16;;;;;;;1.98;1.30;;;11.00;99.90;;;;;;4975647;28;20117;-54
2024/04/01 12:28:43;;;;;;;5.20;3.17;;;10.90;99.90;;;;;;4975830;28;20031;-55
2024/04/01 12:31:20;;;;;;;55.80;16.73;;;11.00;99.90;;;;;;4975219;28;20031;-55
2024/04/01 12:33:47;;;;;;;56.58;31.85;;;11.10;99.90;;;;;;4975248;28;20491;-56
2024/04/01 12:36:13;;;;;;;37.83;20.05;;;11.20;99.90;;;;;;4975263;28;20035;-54
2024/04/01 12:38:41;;;;;;;68.05;36.90;;;11.20;99.90;;;;;;4974977;28;20058;-53
2024/04/01 12:41:08;;;;;;;74.75;33.60;;;11.30;99.90;;;;;;4957789;28;20031;-54
2024/04/01 12:43:35;;;;;;;56.78;23.02;;;11.30;99.90;;;;;;4975027;28;20034;-52
2024/04/01 12:46:01;;;;;;;30.50;14.05;;;11.40;99.90;;;;;;4975360;28;20023;-54
2024/04/01 12:48:28;;;;;;;87.72;39.33;;;11.60;99.90;;;;;;4975113;28;20038;-52
2024/04/01 12:50:57;;;;;;;15.75;8.15;;;11.80;99.90;;;;;;4975010;28;20057;-54
2024/04/01 12:53:44;;;;;;;8.30;4.22;;;12.00;99.90;;;;;;4957470;28;20113;-52
2024/04/01 12:56:19;;;;;;;8.75;3.67;;;12.10;99.90;;;;;;4974774;28;20058;-53
2024/04/01 12:59:23;;;;;;;10.80;6.05;;;12.30;99.90;;;;;;4974955;28;20071;-54